YAYE/AYQ METAR and TAF weather

Enter ICAO airport designator
Station Type Date Time Source
YAYE METAR 2018/12/18 18:00 UTC NOAA

YAYE 181800Z AUTO 17012KT 9999 // NCD 26/10 Q1009


Station Type Date Time Source
YAYE Decoded METAR 2018/12/18 18:00 UTC NOAA

Ayers Rock, Australia (YAYE) 25-11S 130-58E
Dec 18, 2018 - 01:00 PM EST / 2018.12.18 1800 UTC
Wind: from the S (170 degrees) at 14 MPH (12 KT):0
Visibility: greater than 7 mile(s):0
Temperature: 78 F (26 C)
Dew Point: 50 F (10 C)
Relative Humidity: 36%
Pressure (altimeter): 29.80 in. Hg (1009 hPa)
ob: YAYE 181800Z AUTO 17012KT 9999 // NCD 26/10 Q1009
cycle: 18

Station Type Date Time Source
YAYE TAF UTC NOAA

Error!


Example: see airport list